Skip to main content

NOAA/GLERL Met Station at Chicago, IL

Previous 5 days (top of hour only)
See also Previous 3 Hours (2 minute increments)
Jump down to Data
Switch to [English][Metric]
Zoom: Click and drag, Pan: shift-click and drag, Unzoom: double-click, Unzoom All




Note: Speed = mean wind during 2-minute period at top of hour,
Gust = max wind during 2-minute period at top of hour,
Peak = max wind during entire hour.
• See also 5-day windrose plot


NOAA/GLERL Met Station at Chicago, IL

Previous 5 days (top of hour only)
See also Previous 3 Hours (2 minute increments)
Jump up to Graphs
Switch to [English][Metric]
                  Wind  Wind  Wind   Air   Dew   Rel
                   Spd   Gst   Dir  Temp    Pt   Hum
YYYY-MM-DD   CDT   kts   kts   deg     F     F     %
2018-05-26 06:00  13.6  14.6   230  70.0  64.7  83.0
2018-05-26 05:00   9.7  11.1   217  69.3  65.2  86.8
2018-05-26 04:00   9.3  10.3   200  68.9  66.2  91.0
2018-05-26 03:00   9.7  10.1   187  70.9  67.9  90.1
2018-05-26 02:00  13.2  13.6   189  72.0  68.0  87.2
2018-05-26 01:00  13.4  15.6   203  73.4  66.4  78.3
2018-05-26 00:00  15.2  16.7   214  75.4  66.5  73.4
2018-05-25 23:00  14.2  14.8   191  75.0  65.6  72.2
2018-05-25 22:00   3.7   4.5   298  80.2  63.6  56.3
2018-05-25 21:00   7.0   8.2   263  80.1  61.8  53.2
2018-05-25 20:00  11.7  12.2   181  78.6  57.3  47.4
2018-05-25 19:00  10.9  13.0   142  67.6  58.2  71.4
2018-05-25 18:00  17.5  18.1   106  76.1  56.8  50.6
2018-05-25 17:00  17.1  17.3   108  80.2  56.8  44.1
2018-05-25 16:00  15.6  15.7   105  80.6  56.9  43.7
2018-05-25 15:00  13.4  15.2   115  73.6  58.3  58.3
2018-05-25 14:00  11.3  11.5   118  80.1  57.6  45.6
2018-05-25 13:00   5.4   7.0   167  77.7  58.2  50.5
2018-05-25 12:00   8.7  10.7   213  83.7  57.5  40.4
2018-05-25 11:00   2.5   3.7   198  79.9  58.5  47.4
2018-05-25 10:00   2.5   4.9   213  78.8  58.2  48.6
2018-05-25 09:00   7.0   7.6   208  75.9  56.9  51.2
2018-05-25 08:00  13.6  14.4   207  73.6  55.0  51.7
2018-05-25 07:00  17.3  18.5   201  72.3  53.8  51.7
2018-05-25 06:00  14.6  15.4   198  72.5  52.8  49.5
2018-05-25 05:00  14.6  15.2   200  72.3  51.6  47.6
2018-05-25 04:00  14.0  14.4   200  74.1  49.4  41.2
2018-05-25 03:00  14.0  14.4   197  73.0  49.2  42.4
2018-05-25 02:00  12.2  12.6   191  74.7  48.8  39.5
2018-05-25 01:00   9.1   9.1   197  73.2  51.9  46.7
2018-05-25 00:00  11.1  11.9   170  68.0  55.5  63.8
2018-05-24 23:00   8.0   8.6   184  66.2  54.9  66.5
2018-05-24 22:00   8.6  10.1   163  66.7  53.9  63.0
2018-05-24 21:00  11.1  12.8   138  63.9  53.5  68.7
2018-05-24 20:00  18.5  18.7   108  69.8  52.1  52.8
2018-05-24 19:00  18.5  18.9   104  73.6  51.9  46.0
2018-05-24 18:00  19.2  19.4   104  73.8  52.1  46.1
2018-05-24 17:00  18.1  18.5   101  75.0  52.6  45.0
2018-05-24 16:00  16.3  16.7   101  75.7  53.0  44.5
2018-05-24 15:00  16.7  16.7   100  74.1  53.9  48.7
2018-05-24 14:00  16.7  16.9   112  74.8  53.9  47.5
2018-05-24 13:00  15.6  15.9   121  74.8  54.7  48.9
2018-05-24 12:00  15.4  15.7   132  73.4  54.6  51.3
2018-05-24 11:00  12.2  12.6   134  72.0  56.3  57.4
2018-05-24 10:00  12.6  13.2   143  67.6  56.5  67.1
2018-05-24 09:00   6.6   8.0   164  66.9  56.6  69.0
2018-05-24 08:00   6.8   7.0   172  62.8  55.1  75.8
2018-05-24 07:00   2.9   3.3   158  64.4  54.5  69.8
2018-05-24 06:00   3.7   3.9   190  61.5  55.2  79.6
2018-05-24 05:00   3.7   3.9   166  60.3  55.2  83.3
2018-05-24 04:00   1.6   1.7   205  58.3  53.3  83.4
2018-05-24 03:00   1.2   1.6   125  57.6  52.6  83.2
2018-05-24 02:00   4.5   4.7   150  58.5  52.6  80.7
2018-05-24 01:00   3.7   4.3   153  59.0  53.4  81.5
2018-05-24 00:00   4.9   5.2   189  57.6  55.9  94.2
2018-05-23 23:00   2.5   3.1   119  56.5  56.4  99.7
2018-05-23 22:00   3.3   4.1   162  56.1  56.0  99.7
2018-05-23 21:00   4.1   4.7   145  55.6  55.4  99.4
2018-05-23 20:00   4.7   5.1   109  56.1  54.9  95.7
2018-05-23 19:00   2.3   3.1   118  59.0  56.1  90.1
2018-05-23 18:00   0.6   2.7   106  59.0  56.9  92.8
2018-05-23 17:00   4.3   5.2    88  58.3  56.1  92.5
2018-05-23 16:00   8.9   9.3    77  59.2  56.8  91.7
2018-05-23 15:00   7.2   7.2    87  60.3  54.9  82.3
2018-05-23 14:00   6.0   6.2   101  60.6  54.7  80.5
2018-05-23 13:00   5.1   5.2   124  61.2  55.9  82.7
2018-05-23 12:00   5.2   5.4   127  61.5  56.5  83.4
2018-05-23 11:00   4.1   4.3   133  59.4  56.6  90.6
2018-05-23 10:00   3.3   4.3   159  58.5  52.9  81.6
2018-05-23 09:00   1.6   1.6   100  60.6  55.4  82.7
2018-05-23 08:00   0.8   1.0   284  59.7  55.7  86.4
2018-05-23 07:00   4.7   4.9   270  57.0  54.6  91.4
2018-05-23 06:00   3.5   3.7   215  54.1  53.0  95.7
2018-05-23 05:00   5.6   6.0   185  52.5  52.5  99.8
2018-05-23 04:00   3.5   3.7   137  52.2  52.1  99.8
2018-05-23 03:00   1.0   1.4   187  54.3  53.2  95.9
2018-05-23 02:00   1.4   1.6   239  54.0  52.7  95.5
2018-05-23 01:00   8.2   8.6   206  53.1  52.8  98.9
2018-05-23 00:00   5.6   5.8   184  50.5  50.5  99.8
2018-05-22 23:00   4.7   4.7   119  50.5  50.4  99.5
2018-05-22 22:00   3.5   3.7   180  50.0  49.9  99.8
2018-05-22 21:00   2.9   3.3   172  49.1  49.0  99.8
2018-05-22 19:00   2.1   2.5    95  52.0  49.0  89.3
2018-05-22 18:00   2.9   3.5   123  51.4  51.4  99.8
2018-05-22 17:00   0.2   1.0   132  51.3  51.2  99.8
2018-05-22 16:00   4.1   4.9    21  48.7  48.7  99.8
2018-05-22 15:00   5.2   5.8     7  49.1  49.0  99.8
2018-05-22 14:00   7.6   8.7    11  49.1  49.0  99.8
2018-05-22 13:00   9.7  10.5    11  48.2  48.2  99.9
2018-05-22 12:00   8.4   8.7     6  48.4  48.3  99.8
2018-05-22 11:00   7.6   8.4    13  48.6  48.5  99.8
2018-05-22 10:00   7.4   8.2    10  48.0  48.0  99.8
2018-05-22 09:00   8.0   8.6   351  48.2  48.2  99.9
2018-05-22 08:00   9.9  11.1   336  48.9  48.9  99.9
2018-05-22 07:00   8.9   9.9   349  48.4  48.4  99.9
2018-05-22 06:00   8.6   9.9   343  48.6  48.5  99.8
2018-05-22 05:00   9.1  10.1   355  48.2  48.1  99.8
2018-05-22 04:00   7.4   8.0   340  48.4  48.3  99.8
2018-05-22 03:00  10.1  13.8   352  48.0  48.0  99.9
2018-05-22 02:00   7.8   8.6   355  48.4  48.4  99.9
2018-05-22 01:00   8.9  10.1   349  48.7  48.7  99.9
2018-05-22 00:00   9.9  10.9   355  49.8  49.8  99.8
2018-05-21 23:00   7.2   7.4     9  51.3  51.2  99.8
2018-05-21 22:00   9.5  10.1   332  50.0  49.9  99.8
2018-05-21 21:00  11.9  12.4   340  49.6  49.6  99.8
2018-05-21 20:00   6.2   6.8   359  54.9  54.8  99.8
2018-05-21 19:00   7.6   7.8   107  58.1  58.0  99.8